sensor_id;sensor_type;location;lat;lon;timestamp;pressure;altitude;pressure_sealevel;temperature;humidity
77192;BME280;66172;48.526;8.078;2023-01-29T00:01:08;100714.81;;;1.74;71.16
77192;BME280;66172;48.526;8.078;2023-01-29T00:03:35;100719.31;;;1.68;71.72
77192;BME280;66172;48.526;8.078;2023-01-29T00:06:04;100714.94;;;1.62;71.88
77192;BME280;66172;48.526;8.078;2023-01-29T00:08:37;100716.34;;;1.48;71.97
77192;BME280;66172;48.526;8.078;2023-01-29T00:11:05;100714.25;;;1.50;72.15
77192;BME280;66172;48.526;8.078;2023-01-29T00:13:32;100712.13;;;1.52;72.86
77192;BME280;66172;48.526;8.078;2023-01-29T00:16:00;100710.84;;;1.55;72.06
77192;BME280;66172;48.526;8.078;2023-01-29T00:18:27;100706.56;;;1.59;71.62
77192;BME280;66172;48.526;8.078;2023-01-29T00:20:55;100706.25;;;1.55;72.11
77192;BME280;66172;48.526;8.078;2023-01-29T00:23:21;100710.25;;;1.52;72.30
77192;BME280;66172;48.526;8.078;2023-01-29T00:25:47;100712.69;;;1.54;72.15
77192;BME280;66172;48.526;8.078;2023-01-29T00:28:13;100703.91;;;1.59;71.79
77192;BME280;66172;48.526;8.078;2023-01-29T00:30:39;100688.56;;;1.54;72.50
77192;BME280;66172;48.526;8.078;2023-01-29T00:33:05;100689.88;;;1.51;72.34
77192;BME280;66172;48.526;8.078;2023-01-29T00:35:31;100694.50;;;1.56;71.44
77192;BME280;66172;48.526;8.078;2023-01-29T00:37:57;100695.00;;;1.53;71.69
77192;BME280;66172;48.526;8.078;2023-01-29T00:40:24;100691.81;;;1.56;72.61
77192;BME280;66172;48.526;8.078;2023-01-29T00:42:50;100686.94;;;1.53;72.58
77192;BME280;66172;48.526;8.078;2023-01-29T00:45:35;100685.81;;;1.49;73.02
77192;BME280;66172;48.526;8.078;2023-01-29T00:48:04;100682.81;;;1.45;73.44
77192;BME280;66172;48.526;8.078;2023-01-29T00:50:30;100680.16;;;1.45;73.16
77192;BME280;66172;48.526;8.078;2023-01-29T00:52:56;100671.06;;;1.46;73.00
77192;BME280;66172;48.526;8.078;2023-01-29T00:55:22;100677.22;;;1.47;73.01
77192;BME280;66172;48.526;8.078;2023-01-29T00:57:48;100687.94;;;1.47;72.90
77192;BME280;66172;48.526;8.078;2023-01-29T01:00:16;100689.53;;;1.48;72.91
77192;BME280;66172;48.526;8.078;2023-01-29T01:02:43;100679.59;;;1.43;72.65
77192;BME280;66172;48.526;8.078;2023-01-29T01:05:30;100694.59;;;1.44;73.15
77192;BME280;66172;48.526;8.078;2023-01-29T01:07:57;100689.72;;;1.41;72.34
77192;BME280;66172;48.526;8.078;2023-01-29T01:10:31;100687.88;;;1.42;72.93
77192;BME280;66172;48.526;8.078;2023-01-29T01:13:00;100694.53;;;1.39;72.47
77192;BME280;66172;48.526;8.078;2023-01-29T01:15:31;100695.03;;;1.36;72.29
77192;BME280;66172;48.526;8.078;2023-01-29T01:17:59;100700.63;;;1.35;72.64
77192;BME280;66172;48.526;8.078;2023-01-29T01:20:28;100701.69;;;1.34;72.84
77192;BME280;66172;48.526;8.078;2023-01-29T01:22:55;100703.06;;;1.36;73.01
77192;BME280;66172;48.526;8.078;2023-01-29T01:25:23;100699.00;;;1.34;72.77
77192;BME280;66172;48.526;8.078;2023-01-29T01:27:53;100703.06;;;1.36;72.64
77192;BME280;66172;48.526;8.078;2023-01-29T01:30:19;100700.72;;;1.40;72.27
77192;BME280;66172;48.526;8.078;2023-01-29T01:32:45;100705.50;;;1.38;72.46
77192;BME280;66172;48.526;8.078;2023-01-29T01:35:11;100704.13;;;1.35;73.32
77192;BME280;66172;48.526;8.078;2023-01-29T01:37:38;100698.75;;;1.35;72.46
77192;BME280;66172;48.526;8.078;2023-01-29T01:40:07;100693.63;;;1.34;72.22
77192;BME280;66172;48.526;8.078;2023-01-29T01:42:38;100701.84;;;1.27;72.46
77192;BME280;66172;48.526;8.078;2023-01-29T01:45:06;100703.97;;;1.25;73.05
77192;BME280;66172;48.526;8.078;2023-01-29T01:47:44;100706.66;;;1.25;74.02
77192;BME280;66172;48.526;8.078;2023-01-29T01:50:15;100709.66;;;1.29;73.51
77192;BME280;66172;48.526;8.078;2023-01-29T01:52:44;100707.72;;;1.24;73.56
77192;BME280;66172;48.526;8.078;2023-01-29T01:55:13;100708.69;;;1.18;73.51
77192;BME280;66172;48.526;8.078;2023-01-29T01:57:42;100704.03;;;1.30;72.99
77192;BME280;66172;48.526;8.078;2023-01-29T02:00:14;100705.13;;;1.29;72.79
77192;BME280;66172;48.526;8.078;2023-01-29T02:02:42;100713.66;;;1.26;72.28
77192;BME280;66172;48.526;8.078;2023-01-29T02:05:29;100703.72;;;1.27;72.32
77192;BME280;66172;48.526;8.078;2023-01-29T02:08:18;100702.66;;;1.28;72.94
77192;BME280;66172;48.526;8.078;2023-01-29T02:11:06;100701.31;;;1.25;73.03
77192;BME280;66172;48.526;8.078;2023-01-29T02:13:33;100700.50;;;1.25;73.53
77192;BME280;66172;48.526;8.078;2023-01-29T02:15:59;100706.41;;;1.27;72.84
77192;BME280;66172;48.526;8.078;2023-01-29T02:18:25;100704.84;;;1.31;72.41
77192;BME280;66172;48.526;8.078;2023-01-29T02:21:19;100705.84;;;1.25;71.67
77192;BME280;66172;48.526;8.078;2023-01-29T02:24:21;100710.88;;;1.21;72.71
77192;BME280;66172;48.526;8.078;2023-01-29T02:27:13;100700.34;;;1.15;72.27
77192;BME280;66172;48.526;8.078;2023-01-29T02:38:04;100705.28;;;1.23;71.95
77192;BME280;66172;48.526;8.078;2023-01-29T02:40:42;100709.66;;;1.29;70.76
77192;BME280;66172;48.526;8.078;2023-01-29T02:45:49;100710.34;;;1.19;71.48
77192;BME280;66172;48.526;8.078;2023-01-29T02:48:20;100712.75;;;1.21;71.54
77192;BME280;66172;48.526;8.078;2023-01-29T02:50:57;100713.78;;;1.20;71.19
77192;BME280;66172;48.526;8.078;2023-01-29T02:53:36;100703.25;;;1.13;71.83
77192;BME280;66172;48.526;8.078;2023-01-29T02:56:12;100702.72;;;1.11;72.42
77192;BME280;66172;48.526;8.078;2023-01-29T02:58:54;100701.97;;;1.16;71.28
77192;BME280;66172;48.526;8.078;2023-01-29T03:01:43;100702.38;;;1.08;71.53
77192;BME280;66172;48.526;8.078;2023-01-29T03:04:15;100699.44;;;1.09;72.36
77192;BME280;66172;48.526;8.078;2023-01-29T03:06:51;100703.19;;;1.08;72.26
77192;BME280;66172;48.526;8.078;2023-01-29T03:09:23;100708.13;;;1.16;71.43
77192;BME280;66172;48.526;8.078;2023-01-29T03:11:53;100706.34;;;1.22;71.36
77192;BME280;66172;48.526;8.078;2023-01-29T03:17:14;100712.38;;;1.12;72.57
77192;BME280;66172;48.526;8.078;2023-01-29T03:19:43;100710.16;;;1.09;71.83
77192;BME280;66172;48.526;8.078;2023-01-29T03:22:12;100705.06;;;1.08;71.90
77192;BME280;66172;48.526;8.078;2023-01-29T03:24:49;100714.97;;;1.07;71.32
77192;BME280;66172;48.526;8.078;2023-01-29T03:27:40;100704.47;;;1.06;70.94
77192;BME280;66172;48.526;8.078;2023-01-29T03:30:27;100704.25;;;1.07;70.93
77192;BME280;66172;48.526;8.078;2023-01-29T03:33:15;100702.44;;;1.13;70.24
77192;BME280;66172;48.526;8.078;2023-01-29T03:35:48;100706.44;;;1.10;70.58
77192;BME280;66172;48.526;8.078;2023-01-29T03:38:18;100705.56;;;1.05;71.23
77192;BME280;66172;48.526;8.078;2023-01-29T03:44:48;100708.88;;;1.12;70.69
77192;BME280;66172;48.526;8.078;2023-01-29T03:50:02;100710.25;;;0.97;70.91
77192;BME280;66172;48.526;8.078;2023-01-29T03:52:40;100710.75;;;0.94;71.16
77192;BME280;66172;48.526;8.078;2023-01-29T03:57:39;100706.78;;;0.97;71.90
77192;BME280;66172;48.526;8.078;2023-01-29T04:00:16;100714.47;;;0.93;71.90
77192;BME280;66172;48.526;8.078;2023-01-29T04:05:59;100712.69;;;0.99;71.05
77192;BME280;66172;48.526;8.078;2023-01-29T04:09:28;100705.41;;;0.94;70.84
77192;BME280;66172;48.526;8.078;2023-01-29T04:11:28;100707.50;;;0.92;71.33
77192;BME280;66172;48.526;8.078;2023-01-29T04:13:55;100713.09;;;0.91;71.13
77192;BME280;66172;48.526;8.078;2023-01-29T04:16:26;100716.84;;;0.90;71.96
77192;BME280;66172;48.526;8.078;2023-01-29T04:18:52;100717.06;;;0.88;71.53
77192;BME280;66172;48.526;8.078;2023-01-29T04:21:19;100706.13;;;0.90;71.69
77192;BME280;66172;48.526;8.078;2023-01-29T04:23:45;100704.50;;;0.89;72.00
77192;BME280;66172;48.526;8.078;2023-01-29T04:29:24;100709.03;;;0.88;71.43
77192;BME280;66172;48.526;8.078;2023-01-29T04:34:59;100702.63;;;0.89;70.81
77192;BME280;66172;48.526;8.078;2023-01-29T04:38:23;100710.34;;;0.86;71.84
77192;BME280;66172;48.526;8.078;2023-01-29T04:40:57;100718.84;;;0.83;71.88
77192;BME280;66172;48.526;8.078;2023-01-29T04:43:32;100711.88;;;0.82;71.54
77192;BME280;66172;48.526;8.078;2023-01-29T04:46:16;100711.88;;;0.82;72.09
77192;BME280;66172;48.526;8.078;2023-01-29T04:57:24;100704.59;;;0.77;72.37
77192;BME280;66172;48.526;8.078;2023-01-29T04:59:59;100693.88;;;0.77;71.71
77192;BME280;66172;48.526;8.078;2023-01-29T05:02:27;100702.06;;;0.87;70.30
77192;BME280;66172;48.526;8.078;2023-01-29T05:04:54;100696.56;;;0.77;70.71
77192;BME280;66172;48.526;8.078;2023-01-29T05:07:23;100701.34;;;0.75;71.84
77192;BME280;66172;48.526;8.078;2023-01-29T05:09:50;100700.28;;;0.76;71.60
77192;BME280;66172;48.526;8.078;2023-01-29T05:12:16;100702.16;;;0.76;72.17
77192;BME280;66172;48.526;8.078;2023-01-29T05:14:44;100689.25;;;0.73;71.45
77192;BME280;66172;48.526;8.078;2023-01-29T05:17:17;100687.28;;;0.68;72.01
77192;BME280;66172;48.526;8.078;2023-01-29T05:19:45;100693.03;;;0.60;71.87
77192;BME280;66172;48.526;8.078;2023-01-29T05:22:12;100694.19;;;0.64;72.04
77192;BME280;66172;48.526;8.078;2023-01-29T05:24:40;100701.97;;;0.66;72.21
77192;BME280;66172;48.526;8.078;2023-01-29T05:27:09;100710.25;;;0.64;72.35
77192;BME280;66172;48.526;8.078;2023-01-29T05:29:58;100715.03;;;0.62;72.49
77192;BME280;66172;48.526;8.078;2023-01-29T05:32:24;100722.56;;;0.65;72.06
77192;BME280;66172;48.526;8.078;2023-01-29T05:34:49;100716.91;;;0.62;71.51
77192;BME280;66172;48.526;8.078;2023-01-29T05:37:15;100722.47;;;0.60;72.23
77192;BME280;66172;48.526;8.078;2023-01-29T05:39:41;100736.66;;;0.61;72.39
77192;BME280;66172;48.526;8.078;2023-01-29T05:42:07;100727.59;;;0.62;72.50
77192;BME280;66172;48.526;8.078;2023-01-29T05:44:33;100711.66;;;0.67;72.23
77192;BME280;66172;48.526;8.078;2023-01-29T05:46:59;100696.97;;;0.69;71.79
77192;BME280;66172;48.526;8.078;2023-01-29T05:49:27;100685.09;;;0.65;72.21
77192;BME280;66172;48.526;8.078;2023-01-29T05:51:53;100688.84;;;0.64;71.44
77192;BME280;66172;48.526;8.078;2023-01-29T05:54:19;100680.47;;;0.61;70.88
77192;BME280;66172;48.526;8.078;2023-01-29T05:56:45;100673.31;;;0.49;71.82
77192;BME280;66172;48.526;8.078;2023-01-29T05:59:11;100671.25;;;0.52;72.50
77192;BME280;66172;48.526;8.078;2023-01-29T06:01:36;100683.81;;;0.51;72.21
77192;BME280;66172;48.526;8.078;2023-01-29T06:04:02;100691.50;;;0.47;72.49
77192;BME280;66172;48.526;8.078;2023-01-29T06:06:28;100698.47;;;0.48;72.13
77192;BME280;66172;48.526;8.078;2023-01-29T06:08:54;100695.81;;;0.48;72.15
77192;BME280;66172;48.526;8.078;2023-01-29T06:11:20;100691.72;;;0.46;72.26
77192;BME280;66172;48.526;8.078;2023-01-29T06:13:46;100694.66;;;0.44;72.88
77192;BME280;66172;48.526;8.078;2023-01-29T06:16:12;100702.69;;;0.44;72.61
77192;BME280;66172;48.526;8.078;2023-01-29T06:18:39;100701.31;;;0.42;72.31
77192;BME280;66172;48.526;8.078;2023-01-29T06:21:09;100692.16;;;0.38;72.71
77192;BME280;66172;48.526;8.078;2023-01-29T06:23:35;100698.53;;;0.37;72.63
77192;BME280;66172;48.526;8.078;2023-01-29T06:26:11;100715.97;;;0.39;73.15
77192;BME280;66172;48.526;8.078;2023-01-29T06:28:38;100717.03;;;0.38;72.11
77192;BME280;66172;48.526;8.078;2023-01-29T06:31:05;100729.34;;;0.39;72.54
77192;BME280;66172;48.526;8.078;2023-01-29T06:33:31;100733.97;;;0.44;72.66
77192;BME280;66172;48.526;8.078;2023-01-29T06:36:02;100730.97;;;0.40;72.76
77192;BME280;66172;48.526;8.078;2023-01-29T06:38:28;100734.69;;;0.39;72.57
77192;BME280;66172;48.526;8.078;2023-01-29T06:40:56;100737.84;;;0.36;72.48
77192;BME280;66172;48.526;8.078;2023-01-29T06:43:22;100739.97;;;0.34;72.84
77192;BME280;66172;48.526;8.078;2023-01-29T06:45:53;100746.31;;;0.45;72.95
77192;BME280;66172;48.526;8.078;2023-01-29T06:48:19;100743.28;;;0.41;72.26
77192;BME280;66172;48.526;8.078;2023-01-29T06:50:45;100736.31;;;0.40;72.55
77192;BME280;66172;48.526;8.078;2023-01-29T06:53:12;100729.09;;;0.41;72.51
77192;BME280;66172;48.526;8.078;2023-01-29T06:55:38;100727.25;;;0.41;72.77
77192;BME280;66172;48.526;8.078;2023-01-29T06:58:05;100729.09;;;0.41;73.13
77192;BME280;66172;48.526;8.078;2023-01-29T07:00:32;100727.81;;;0.43;72.55
77192;BME280;66172;48.526;8.078;2023-01-29T07:02:58;100733.97;;;0.44;73.10
77192;BME280;66172;48.526;8.078;2023-01-29T07:05:24;100736.88;;;0.42;72.92
77192;BME280;66172;48.526;8.078;2023-01-29T07:07:49;100734.69;;;0.39;72.93
77192;BME280;66172;48.526;8.078;2023-01-29T07:10:16;100744.81;;;0.37;72.25
77192;BME280;66172;48.526;8.078;2023-01-29T07:12:41;100742.97;;;0.38;72.52
77192;BME280;66172;48.526;8.078;2023-01-29T07:15:08;100726.59;;;0.34;72.94
77192;BME280;66172;48.526;8.078;2023-01-29T07:17:34;100714.91;;;0.40;72.33
77192;BME280;66172;48.526;8.078;2023-01-29T07:20:00;100722.47;;;0.43;72.48
77192;BME280;66172;48.526;8.078;2023-01-29T07:22:26;100713.00;;;0.53;71.80
77192;BME280;66172;48.526;8.078;2023-01-29T07:24:51;100720.06;;;0.59;72.69
77192;BME280;66172;48.526;8.078;2023-01-29T07:27:17;100715.84;;;0.63;71.54
77192;BME280;66172;48.526;8.078;2023-01-29T07:29:43;100721.69;;;0.60;71.53
77192;BME280;66172;48.526;8.078;2023-01-29T07:32:09;100720.22;;;0.52;71.86
77192;BME280;66172;48.526;8.078;2023-01-29T07:34:35;100730.47;;;0.43;72.52
77192;BME280;66172;48.526;8.078;2023-01-29T07:37:01;100731.06;;;0.45;72.65
77192;BME280;66172;48.526;8.078;2023-01-29T07:39:27;100736.88;;;0.42;72.41
77192;BME280;66172;48.526;8.078;2023-01-29T07:41:52;100743.16;;;0.48;72.90
77192;BME280;66172;48.526;8.078;2023-01-29T07:44:18;100749.72;;;0.57;72.46
77192;BME280;66172;48.526;8.078;2023-01-29T07:46:44;100751.78;;;0.67;72.33
77192;BME280;66172;48.526;8.078;2023-01-29T07:49:10;100753.09;;;0.81;72.08
77192;BME280;66172;48.526;8.078;2023-01-29T07:51:36;100756.84;;;0.96;72.50
77192;BME280;66172;48.526;8.078;2023-01-29T07:54:02;100768.03;;;1.10;71.15
77192;BME280;66172;48.526;8.078;2023-01-29T07:56:28;100766.91;;;1.23;70.58
77192;BME280;66172;48.526;8.078;2023-01-29T07:58:54;100772.91;;;1.30;71.08
77192;BME280;66172;48.526;8.078;2023-01-29T08:01:20;100783.84;;;1.45;70.54
77192;BME280;66172;48.526;8.078;2023-01-29T08:03:46;100778.88;;;1.54;70.22
77192;BME280;66172;48.526;8.078;2023-01-29T08:06:12;100778.63;;;1.55;69.96
77192;BME280;66172;48.526;8.078;2023-01-29T08:08:38;100776.75;;;1.56;70.58
77192;BME280;66172;48.526;8.078;2023-01-29T08:11:04;100776.69;;;1.50;69.79
77192;BME280;66172;48.526;8.078;2023-01-29T08:13:30;100781.16;;;1.45;69.64
77192;BME280;66172;48.526;8.078;2023-01-29T08:16:01;100782.56;;;1.47;69.81
77192;BME280;66172;48.526;8.078;2023-01-29T08:18:28;100785.28;;;1.52;70.03
77192;BME280;66172;48.526;8.078;2023-01-29T08:21:00;100792.78;;;1.50;69.98
77192;BME280;66172;48.526;8.078;2023-01-29T08:23:26;100800.25;;;1.48;69.66
77192;BME280;66172;48.526;8.078;2023-01-29T08:25:52;100799.59;;;1.41;69.50
77192;BME280;66172;48.526;8.078;2023-01-29T08:28:18;100806.91;;;1.46;70.07
77192;BME280;66172;48.526;8.078;2023-01-29T08:30:44;100814.22;;;1.50;69.90
77192;BME280;66172;48.526;8.078;2023-01-29T08:33:10;100811.91;;;1.59;69.87
77192;BME280;66172;48.526;8.078;2023-01-29T08:35:36;100815.59;;;1.53;69.79
77192;BME280;66172;48.526;8.078;2023-01-29T08:38:03;100811.91;;;1.59;68.98
77192;BME280;66172;48.526;8.078;2023-01-29T08:40:31;100818.19;;;1.65;69.57
77192;BME280;66172;48.526;8.078;2023-01-29T08:43:03;100821.75;;;1.70;68.79
77192;BME280;66172;48.526;8.078;2023-01-29T08:45:30;100805.16;;;1.73;68.79
77192;BME280;66172;48.526;8.078;2023-01-29T08:47:57;100804.66;;;1.76;68.93
77192;BME280;66172;48.526;8.078;2023-01-29T08:50:23;100805.16;;;1.73;68.99
77192;BME280;66172;48.526;8.078;2023-01-29T08:52:50;100812.47;;;1.78;68.70
77192;BME280;66172;48.526;8.078;2023-01-29T08:55:16;100815.34;;;1.71;70.11
77192;BME280;66172;48.526;8.078;2023-01-29T08:57:41;100807.34;;;1.76;70.00
77192;BME280;66172;48.526;8.078;2023-01-29T09:00:08;100814.16;;;1.84;69.31
77192;BME280;66172;48.526;8.078;2023-01-29T09:02:36;100819.03;;;1.87;69.50
77192;BME280;66172;48.526;8.078;2023-01-29T09:05:02;100810.19;;;1.86;68.80
77192;BME280;66172;48.526;8.078;2023-01-29T09:07:28;100818.66;;;1.78;69.52
77192;BME280;66172;48.526;8.078;2023-01-29T09:09:54;100812.09;;;1.91;69.07
77192;BME280;66172;48.526;8.078;2023-01-29T09:12:20;100807.97;;;2.00;68.50
77192;BME280;66172;48.526;8.078;2023-01-29T09:14:46;100809.53;;;2.18;67.78
77192;BME280;66172;48.526;8.078;2023-01-29T09:17:12;100815.69;;;2.18;68.28
77192;BME280;66172;48.526;8.078;2023-01-29T09:19:38;100804.16;;;2.18;67.37
77192;BME280;66172;48.526;8.078;2023-01-29T09:22:04;100801.34;;;2.29;67.69
77192;BME280;66172;48.526;8.078;2023-01-29T09:24:30;100796.38;;;2.43;67.42
77192;BME280;66172;48.526;8.078;2023-01-29T09:26:57;100791.91;;;2.48;67.04
77192;BME280;66172;48.526;8.078;2023-01-29T09:29:23;100795.09;;;2.72;66.73
77192;BME280;66172;48.526;8.078;2023-01-29T09:31:49;100799.06;;;2.91;66.62
77192;BME280;66172;48.526;8.078;2023-01-29T09:34:14;100804.25;;;3.03;66.13
77192;BME280;66172;48.526;8.078;2023-01-29T09:36:40;100807.25;;;3.07;66.25
77192;BME280;66172;48.526;8.078;2023-01-29T09:39:06;100801.06;;;3.06;65.79
77192;BME280;66172;48.526;8.078;2023-01-29T09:47:18;100824.91;;;3.61;63.67
77192;BME280;66172;48.526;8.078;2023-01-29T09:49:48;100817.00;;;3.86;63.27
77192;BME280;66172;48.526;8.078;2023-01-29T09:52:19;100814.31;;;3.91;62.83
77192;BME280;66172;48.526;8.078;2023-01-29T09:55:01;100812.75;;;4.00;62.37
77192;BME280;66172;48.526;8.078;2023-01-29T09:58:18;100804.53;;;4.27;61.13
77192;BME280;66172;48.526;8.078;2023-01-29T10:06:20;100765.38;;;5.27;57.38
77192;BME280;66172;48.526;8.078;2023-01-29T10:14:54;100754.28;;;5.49;54.45
77192;BME280;66172;48.526;8.078;2023-01-29T10:20:27;100744.22;;;5.90;54.63
77192;BME280;66172;48.526;8.078;2023-01-29T10:23:09;100736.75;;;6.31;52.67
77192;BME280;66172;48.526;8.078;2023-01-29T10:25:40;100740.13;;;6.51;51.38
77192;BME280;66172;48.526;8.078;2023-01-29T10:28:22;100742.19;;;6.26;49.85
77192;BME280;66172;48.526;8.078;2023-01-29T10:30:53;100735.94;;;6.74;49.57
77192;BME280;66172;48.526;8.078;2023-01-29T10:33:35;100745.16;;;7.36;47.76
77192;BME280;66172;48.526;8.078;2023-01-29T10:36:07;100750.75;;;7.16;48.48
77192;BME280;66172;48.526;8.078;2023-01-29T10:38:50;100747.81;;;7.12;48.85
77192;BME280;66172;48.526;8.078;2023-01-29T10:55:41;100747.81;;;5.35;54.32
77192;BME280;66172;48.526;8.078;2023-01-29T10:58:20;100744.53;;;4.47;57.16
77192;BME280;66172;48.526;8.078;2023-01-29T11:00:50;100744.03;;;4.75;56.91
77192;BME280;66172;48.526;8.078;2023-01-29T11:03:25;100738.13;;;4.73;57.68
77192;BME280;66172;48.526;8.078;2023-01-29T11:05:54;100738.66;;;4.75;57.87
77192;BME280;66172;48.526;8.078;2023-01-29T11:08:24;100739.75;;;4.74;57.55
77192;BME280;66172;48.526;8.078;2023-01-29T11:11:00;100742.44;;;4.74;57.87
77192;BME280;66172;48.526;8.078;2023-01-29T11:13:40;100744.56;;;4.62;57.96
77192;BME280;66172;48.526;8.078;2023-01-29T11:16:08;100742.41;;;4.54;57.92
77192;BME280;66172;48.526;8.078;2023-01-29T11:18:55;100737.88;;;4.85;57.45
77192;BME280;66172;48.526;8.078;2023-01-29T11:21:22;100747.56;;;4.71;57.88
77192;BME280;66172;48.526;8.078;2023-01-29T11:23:49;100746.16;;;4.48;57.50
77192;BME280;66172;48.526;8.078;2023-01-29T11:26:20;100753.50;;;4.83;56.91
77192;BME280;66172;48.526;8.078;2023-01-29T11:28:49;100756.47;;;4.71;57.53
77192;BME280;66172;48.526;8.078;2023-01-29T11:31:21;100754.53;;;4.62;57.04
77192;BME280;66172;48.526;8.078;2023-01-29T11:33:50;100751.34;;;4.95;56.91
77192;BME280;66172;48.526;8.078;2023-01-29T11:36:23;100735.72;;;4.82;56.65
77192;BME280;66172;48.526;8.078;2023-01-29T11:39:29;100724.41;;;5.05;56.71
77192;BME280;66172;48.526;8.078;2023-01-29T11:42:01;100719.78;;;5.26;55.23
77192;BME280;66172;48.526;8.078;2023-01-29T11:44:31;100716.25;;;5.45;54.38
77192;BME280;66172;48.526;8.078;2023-01-29T11:49:47;100712.75;;;5.40;54.72
77192;BME280;66172;48.526;8.078;2023-01-29T11:52:16;100721.09;;;5.53;54.70
77192;BME280;66172;48.526;8.078;2023-01-29T11:54:49;100721.63;;;5.66;53.97
77192;BME280;66172;48.526;8.078;2023-01-29T11:57:39;100728.13;;;5.54;53.93
77192;BME280;66172;48.526;8.078;2023-01-29T12:00:21;100724.88;;;5.58;53.87
77192;BME280;66172;48.526;8.078;2023-01-29T12:03:00;100727.06;;;5.40;54.30
77192;BME280;66172;48.526;8.078;2023-01-29T12:05:30;100716.19;;;5.76;53.78
77192;BME280;66172;48.526;8.078;2023-01-29T12:07:57;100709.13;;;5.90;53.27
77192;BME280;66172;48.526;8.078;2023-01-29T12:10:36;100717.56;;;5.68;53.64
77192;BME280;66172;48.526;8.078;2023-01-29T12:13:06;100696.00;;;5.53;54.13
77192;BME280;66172;48.526;8.078;2023-01-29T12:15:41;100693.41;;;6.02;53.26
77192;BME280;66172;48.526;8.078;2023-01-29T12:18:34;100686.50;;;6.30;52.59
77192;BME280;66172;48.526;8.078;2023-01-29T12:21:12;100665.59;;;6.50;50.12
77192;BME280;66172;48.526;8.078;2023-01-29T12:24:00;100661.75;;;6.57;49.85
77192;BME280;66172;48.526;8.078;2023-01-29T12:26:37;100665.84;;;6.54;49.64
77192;BME280;66172;48.526;8.078;2023-01-29T12:29:18;100664.44;;;6.18;50.75
77192;BME280;66172;48.526;8.078;2023-01-29T12:31:54;100647.38;;;6.27;50.18
77192;BME280;66172;48.526;8.078;2023-01-29T12:34:34;100640.78;;;6.43;50.30
77192;BME280;66172;48.526;8.078;2023-01-29T12:37:20;100636.22;;;6.39;50.75
77192;BME280;66172;48.526;8.078;2023-01-29T12:39:49;100631.03;;;6.76;49.65
77192;BME280;66172;48.526;8.078;2023-01-29T12:42:21;100635.34;;;6.82;49.65
77192;BME280;66172;48.526;8.078;2023-01-29T12:44:51;100621.41;;;7.23;48.63
77192;BME280;66172;48.526;8.078;2023-01-29T12:47:25;100613.13;;;7.14;48.50
77192;BME280;66172;48.526;8.078;2023-01-29T12:49:56;100607.75;;;7.33;48.23
77192;BME280;66172;48.526;8.078;2023-01-29T12:52:35;100599.16;;;7.73;47.76
77192;BME280;66172;48.526;8.078;2023-01-29T12:57:46;100590.75;;;8.31;46.60
77192;BME280;66172;48.526;8.078;2023-01-29T13:00:20;100582.31;;;8.51;44.09
77192;BME280;66172;48.526;8.078;2023-01-29T13:02:58;100585.94;;;7.48;45.91
77192;BME280;66172;48.526;8.078;2023-01-29T13:05:40;100584.72;;;7.35;46.96
77192;BME280;66172;48.526;8.078;2023-01-29T13:08:13;100574.22;;;7.10;47.58
77192;BME280;66172;48.526;8.078;2023-01-29T13:10:43;100581.03;;;6.79;48.31
77192;BME280;66172;48.526;8.078;2023-01-29T13:13:37;100576.69;;;6.49;49.87
77192;BME280;66172;48.526;8.078;2023-01-29T13:16:02;100575.81;;;6.25;50.27
77192;BME280;66172;48.526;8.078;2023-01-29T13:18:40;100578.69;;;6.05;51.39
77192;BME280;66172;48.526;8.078;2023-01-29T13:21:26;100578.44;;;6.01;52.11
77192;BME280;66172;48.526;8.078;2023-01-29T13:23:57;100573.19;;;6.48;51.54
77192;BME280;66172;48.526;8.078;2023-01-29T13:26:24;100572.47;;;6.38;51.13
77192;BME280;66172;48.526;8.078;2023-01-29T13:28:51;100571.09;;;6.40;51.04
77192;BME280;66172;48.526;8.078;2023-01-29T13:31:29;100571.28;;;6.54;49.90
77192;BME280;66172;48.526;8.078;2023-01-29T13:34:11;100566.75;;;6.44;50.69
77192;BME280;66172;48.526;8.078;2023-01-29T13:36:50;100567.69;;;6.59;51.01
77192;BME280;66172;48.526;8.078;2023-01-29T13:41:52;100563.91;;;6.60;50.91
77192;BME280;66172;48.526;8.078;2023-01-29T13:44:25;100562.25;;;6.64;50.46
77192;BME280;66172;48.526;8.078;2023-01-29T13:46:56;100576.19;;;6.47;50.69
77192;BME280;66172;48.526;8.078;2023-01-29T13:49:35;100575.59;;;6.16;51.24
77192;BME280;66172;48.526;8.078;2023-01-29T13:52:39;100572.16;;;5.57;52.64
77192;BME280;66172;48.526;8.078;2023-01-29T13:55:20;100570.84;;;6.03;52.15
77192;BME280;66172;48.526;8.078;2023-01-29T13:57:51;100578.06;;;5.64;53.17
77192;BME280;66172;48.526;8.078;2023-01-29T14:03:31;100588.94;;;5.48;53.82
77192;BME280;66172;48.526;8.078;2023-01-29T14:05:58;100592.50;;;5.34;53.96
77192;BME280;66172;48.526;8.078;2023-01-29T14:13:48;100581.84;;;4.88;55.53
77192;BME280;66172;48.526;8.078;2023-01-29T14:18:50;100582.41;;;4.80;55.87
77192;BME280;66172;48.526;8.078;2023-01-29T14:21:21;100582.69;;;4.74;55.70
77192;BME280;66172;48.526;8.078;2023-01-29T14:23:58;100575.16;;;4.56;56.08
77192;BME280;66172;48.526;8.078;2023-01-29T14:34:19;100588.06;;;4.84;54.88
77192;BME280;66172;48.526;8.078;2023-01-29T14:36:46;100594.00;;;4.81;55.69
77192;BME280;66172;48.526;8.078;2023-01-29T14:39:42;100590.78;;;4.74;56.21
77192;BME280;66172;48.526;8.078;2023-01-29T14:45:29;100597.47;;;4.91;55.02
77192;BME280;66172;48.526;8.078;2023-01-29T14:53:05;100585.94;;;4.71;55.98
77192;BME280;66172;48.526;8.078;2023-01-29T14:55:43;100582.97;;;4.62;55.42
77192;BME280;66172;48.526;8.078;2023-01-29T14:58:17;100584.84;;;4.67;55.51
77192;BME280;66172;48.526;8.078;2023-01-29T15:00:45;100582.66;;;4.79;54.26
77192;BME280;66172;48.526;8.078;2023-01-29T15:03:21;100593.44;;;4.69;54.63
77192;BME280;66172;48.526;8.078;2023-01-29T15:05:52;100582.69;;;4.59;54.88
77192;BME280;66172;48.526;8.078;2023-01-29T15:08:25;100583.22;;;4.50;55.26
77192;BME280;66172;48.526;8.078;2023-01-29T15:10:56;100588.63;;;4.25;56.08
77192;BME280;66172;48.526;8.078;2023-01-29T15:13:47;100579.41;;;3.81;57.06